This is the latest recevied weather packets stored in our database for station/object K7FRY. If no packets are shown the sender has not sent any weather packets the latest 1 day(s).
| Time | Temp. | Humidity | Pressure | Rain* | Wind** | Luminosity | Snow |
|---|---|---|---|---|---|---|---|
| 1778081050 | 18.33° C | 45% | 1017.9 hPa | 0 mm | - | 540 W/m² | - |
| 1778079839 | 17.78° C | 47% | 1017.8 hPa | 0 mm | - | 376 W/m² | - |
| 1778079536 | 17.22° C | 49% | 1017.7 hPa | 0 mm | - | 409 W/m² | - |
| 1778079232 | 16.67° C | 50% | 1017.7 hPa | 0 mm | - | 337 W/m² | - |
| 1778078626 | 16.67° C | 51% | 1017.8 hPa | 0 mm | - | 302 W/m² | - |
| 1778076813 | 15.56° C | 58% | 1017.9 hPa | 0 mm | - | 200 W/m² | - |
| 1778076511 | 15° C | 57% | 1017.8 hPa | 0 mm | - | 181 W/m² | - |
| 1778075601 | 15° C | 55% | 1017.7 hPa | 0 mm | - | 129 W/m² | - |
| 1778074994 | 15° C | 56% | 1017.7 hPa | 0 mm | - | 61 W/m² | - |
| 1778074388 | 13.33° C | 61% | 1017.7 hPa | 0 mm | - | 46 W/m² | - |
| 1778073480 | 12.22° C | 67% | 1017.4 hPa | 0 mm | - | 34 W/m² | - |
| 1778071965 | 11.11° C | 67% | 1017.3 hPa | 0 mm | - | 16 W/m² | - |
| 1778070453 | 10.56° C | 71% | 1016.8 hPa | 0 mm | - | 1 W/m² | - |
| 1778069242 | 10.56° C | 71% | 1016.8 hPa | 0 mm | - | 0 W/m² | - |
| 1778065309 | 10.56° C | 71% | 1016.4 hPa | 0 mm | - | 0 W/m² | - |
| 1778064098 | 11.11° C | 69% | 1016.1 hPa | 0 mm | - | 0 W/m² | - |
| 1778063795 | 11.11° C | 70% | 1016.1 hPa | 0 mm | - | 0 W/m² | - |
| 1778063190 | 10.56° C | 70% | 1016.2 hPa | 0 mm | - | 0 W/m² | - |
| 1778062887 | 11.11° C | 70% | 1016.1 hPa | 0 mm | - | 0 W/m² | - |
| 1778061979 | 12.22° C | 63% | 1016.2 hPa | 0 mm | - | 0 W/m² | - |
| 1778060769 | 11.11° C | 67% | 1016 hPa | 0 mm | - | 0 W/m² | - |
| 1778060165 | 12.78° C | 59% | 1016 hPa | 0 mm | - | 0 W/m² | - |
| 1778059862 | 12.22° C | 62% | 1015.9 hPa | 0 mm | - | 0 W/m² | - |
| 1778059560 | 12.22° C | 63% | 1015.8 hPa | 0 mm | - | 0 W/m² | - |
| 1778059256 | 12.22° C | 63% | 1015.6 hPa | 0 mm | - | 0 W/m² | - |
* Rain latest hour (hover to see other rain measurements)
** Current wind speed in m/s (hover to see current wind gust speed)